Time;durP1;ratioP1;P1;durP2;ratioP2;P2;SDS_P1;SDS_P2;PMS_P1;PMS_P2;Temp;Humidity;BMP_temperature;BMP_pressure;BME280_temperature;BME280_humidity;BME280_pressure;Samples;Min_cycle;Max_cycle;Signal;HPM_P1;HPM_P2
2021/03/08 00:00:51;;;;;;;39.58;26.23;;;4.70;86.80;;;;;;5065886;28;20032;-38
2021/03/08 00:03:17;;;;;;;40.85;25.80;;;4.70;86.80;;;;;;5065711;28;20104;-40
2021/03/08 00:05:43;;;;;;;36.45;23.38;;;4.70;86.70;;;;;;5065851;28;20108;-35
2021/03/08 00:08:10;;;;;;;43.03;27.33;;;4.70;86.60;;;;;;5066092;28;20414;-39
2021/03/08 00:10:35;;;;;;;45.78;27.48;;;4.70;86.80;;;;;;5065362;28;20554;-38
2021/03/08 00:13:01;;;;;;;42.78;27.10;;;4.70;87.30;;;;;;5066023;28;20135;-38
2021/03/08 00:15:27;;;;;;;39.17;23.77;;;4.70;87.10;;;;;;5065897;28;20044;-38
2021/03/08 00:17:53;;;;;;;36.05;21.92;;;4.70;87.10;;;;;;5065394;28;20016;-40
2021/03/08 00:20:21;;;;;;;33.28;21.23;;;4.70;86.90;;;;;;5065709;28;20499;-39
2021/03/08 00:22:47;;;;;;;32.08;19.65;;;4.70;86.80;;;;;;5065205;28;20459;-40
2021/03/08 00:25:18;;;;;;;33.78;21.25;;;4.80;86.80;;;;;;5065672;28;20032;-39
2021/03/08 00:27:44;;;;;;;34.42;20.90;;;4.80;86.70;;;;;;5065880;28;20029;-40
2021/03/08 00:30:10;;;;;;;30.45;18.95;;;4.80;86.70;;;;;;5065103;28;20475;-39
2021/03/08 00:32:36;;;;;;;27.55;17.90;;;4.80;86.60;;;;;;5065272;28;20013;-39
2021/03/08 00:35:02;;;;;;;29.65;18.60;;;4.80;86.60;;;;;;5065728;28;20120;-39
2021/03/08 00:37:31;;;;;;;32.13;19.40;;;4.80;86.60;;;;;;5065510;28;20040;-39
2021/03/08 00:40:02;;;;;;;30.05;19.40;;;4.80;86.60;;;;;;5065152;28;20048;-40
2021/03/08 00:42:28;;;;;;;36.33;22.58;;;4.80;86.60;;;;;;5065939;28;20028;-40
2021/03/08 00:44:55;;;;;;;38.20;22.52;;;4.80;86.80;;;;;;5065010;28;20031;-39
2021/03/08 00:47:21;;;;;;;34.67;21.95;;;4.80;86.70;;;;;;5065227;28;20111;-36
2021/03/08 00:49:50;;;;;;;33.20;20.48;;;4.80;86.70;;;;;;5065040;28;20021;-40
2021/03/08 00:52:18;;;;;;;33.50;21.35;;;4.80;86.70;;;;;;5065132;28;20029;-39
2021/03/08 00:54:44;;;;;;;33.03;20.48;;;4.80;86.70;;;;;;5064923;28;20035;-39
2021/03/08 00:57:10;;;;;;;33.75;21.33;;;4.80;86.70;;;;;;5064855;28;20048;-39
2021/03/08 00:59:39;;;;;;;31.58;20.58;;;4.80;87.20;;;;;;5064693;28;20016;-40
2021/03/08 01:02:05;;;;;;;36.08;22.25;;;4.80;86.90;;;;;;5064805;28;20036;-37
2021/03/08 01:04:31;;;;;;;33.60;20.80;;;4.80;87.00;;;;;;5065154;28;20028;-39
2021/03/08 01:06:57;;;;;;;38.05;23.60;;;4.70;87.00;;;;;;5064886;28;20029;-38
2021/03/08 01:09:22;;;;;;;36.25;23.90;;;4.70;87.20;;;;;;5064916;28;20104;-39
2021/03/08 01:11:48;;;;;;;40.97;25.48;;;4.70;87.30;;;;;;5064637;28;20103;-38
2021/03/08 01:14:14;;;;;;;38.15;22.88;;;4.70;87.40;;;;;;5064569;28;20039;-39
2021/03/08 01:16:40;;;;;;;30.17;19.63;;;4.70;87.20;;;;;;5064996;28;20063;-39
2021/03/08 01:19:06;;;;;;;31.70;20.95;;;4.70;87.10;;;;;;5064705;28;20024;-39
2021/03/08 01:21:32;;;;;;;29.52;18.88;;;4.70;87.10;;;;;;5064657;28;20042;-36
2021/03/08 01:23:59;;;;;;;27.95;19.00;;;4.70;87.10;;;;;;5065178;28;20112;-38
2021/03/08 01:26:25;;;;;;;33.50;20.25;;;4.70;87.10;;;;;;5064670;28;20028;-38
2021/03/08 01:28:51;;;;;;;29.17;18.00;;;4.70;87.10;;;;;;5065751;28;20055;-39
2021/03/08 01:31:16;;;;;;;30.08;18.88;;;4.70;87.10;;;;;;5068830;28;20103;-39
2021/03/08 01:33:42;;;;;;;29.92;18.67;;;4.70;87.10;;;;;;5068618;28;20120;-38
2021/03/08 01:36:08;;;;;;;29.88;18.35;;;4.70;87.10;;;;;;5068736;28;20131;-38
2021/03/08 01:38:33;;;;;;;30.25;18.80;;;4.70;87.10;;;;;;5068428;28;20059;-39
2021/03/08 01:40:59;;;;;;;31.48;19.67;;;4.80;87.20;;;;;;5068725;28;20055;-36
2021/03/08 01:43:25;;;;;;;28.42;18.70;;;4.70;87.10;;;;;;5068910;28;20027;-38
2021/03/08 01:45:51;;;;;;;29.60;18.98;;;4.80;87.10;;;;;;5068911;28;20031;-39
2021/03/08 01:48:17;;;;;;;29.90;18.02;;;4.80;87.00;;;;;;5067882;28;20043;-39
2021/03/08 01:50:48;;;;;;;26.90;17.27;;;4.80;87.00;;;;;;5068671;28;20472;-39
2021/03/08 01:53:17;;;;;;;29.98;18.30;;;4.80;87.10;;;;;;5068552;28;20051;-41
2021/03/08 01:55:43;;;;;;;26.08;17.75;;;4.80;87.10;;;;;;5068370;28;20036;-39
2021/03/08 01:58:09;;;;;;;27.25;17.85;;;4.80;87.10;;;;;;5068327;28;20027;-41
2021/03/08 02:00:36;;;;;;;28.85;18.00;;;4.80;87.20;;;;;;5068304;28;20029;-39
2021/03/08 02:03:02;;;;;;;29.23;18.27;;;4.80;87.20;;;;;;5067909;28;20154;-39
2021/03/08 02:05:34;;;;;;;29.27;18.45;;;4.80;87.20;;;;;;5068582;28;20203;-39
2021/03/08 02:08:02;;;;;;;29.80;18.48;;;4.80;87.80;;;;;;5068589;28;20182;-37
2021/03/08 02:10:30;;;;;;;30.30;18.98;;;4.70;87.20;;;;;;5068062;28;20056;-39
2021/03/08 02:13:18;;;;;;;28.83;18.25;;;4.70;87.40;;;;;;5068322;28;20020;-36
2021/03/08 02:16:06;;;;;;;27.70;17.73;;;4.70;87.50;;;;;;5059459;28;20048;-37
2021/03/08 02:18:51;;;;;;;34.22;19.42;;;4.70;87.60;;;;;;5047737;28;20448;-38
2021/03/08 02:21:48;;;;;;;30.00;18.90;;;4.60;87.50;;;;;;5067949;28;20020;-38
2021/03/08 02:24:25;;;;;;;28.90;18.52;;;4.60;87.60;;;;;;5067233;28;20111;-38
2021/03/08 02:27:05;;;;;;;29.10;18.73;;;4.60;87.60;;;;;;5067817;28;20032;-38
2021/03/08 02:29:38;;;;;;;31.25;18.02;;;4.60;87.70;;;;;;5067575;28;20024;-39
2021/03/08 02:32:08;;;;;;;28.58;17.88;;;4.50;87.70;;;;;;5067822;28;20029;-38
2021/03/08 02:34:56;;;;;;;29.10;17.75;;;4.60;87.80;;;;;;5067827;28;20112;-37
2021/03/08 02:37:26;;;;;;;29.20;17.25;;;4.60;87.80;;;;;;5067828;28;20040;-38
2021/03/08 02:39:58;;;;;;;27.00;17.45;;;4.50;87.80;;;;;;5067162;28;20124;-37
2021/03/08 02:42:29;;;;;;;26.45;17.10;;;4.60;88.00;;;;;;5067771;28;20024;-39
2021/03/08 02:44:58;;;;;;;29.95;18.48;;;4.50;87.90;;;;;;5066991;28;20125;-38
2021/03/08 02:47:26;;;;;;;31.08;19.33;;;4.60;88.10;;;;;;5067447;28;20110;-40
2021/03/08 02:49:57;;;;;;;29.30;18.63;;;4.60;88.10;;;;;;5067596;28;20039;-35
2021/03/08 02:52:27;;;;;;;28.33;17.95;;;4.50;88.10;;;;;;5066473;28;20132;-38
2021/03/08 02:54:57;;;;;;;27.40;16.80;;;4.50;88.10;;;;;;5067028;28;20024;-38
2021/03/08 02:57:28;;;;;;;32.20;19.90;;;4.50;88.20;;;;;;5067376;28;20080;-39
2021/03/08 02:59:56;;;;;;;31.70;20.17;;;4.60;88.40;;;;;;5067439;28;20016;-37
2021/03/08 03:02:23;;;;;;;36.55;21.48;;;4.50;88.40;;;;;;5067033;28;20440;-39
2021/03/08 03:04:50;;;;;;;33.30;20.17;;;4.60;88.50;;;;;;5066672;28;20024;-38
2021/03/08 03:07:17;;;;;;;37.22;20.83;;;4.60;88.50;;;;;;5067112;28;20440;-38
2021/03/08 03:09:47;;;;;;;33.00;20.35;;;4.60;88.40;;;;;;5067075;28;20124;-38
2021/03/08 03:12:14;;;;;;;34.15;19.85;;;4.60;88.50;;;;;;5066698;28;20024;-40
2021/03/08 03:14:42;;;;;;;36.03;21.30;;;4.70;88.50;;;;;;5066688;28;20056;-38
2021/03/08 03:17:11;;;;;;;37.55;21.98;;;4.70;88.60;;;;;;5066642;28;20040;-40
2021/03/08 03:19:44;;;;;;;41.30;23.33;;;4.70;88.60;;;;;;5066470;28;20051;-39
2021/03/08 03:22:11;;;;;;;39.25;23.92;;;4.70;88.60;;;;;;5066796;28;20055;-40
2021/03/08 03:24:37;;;;;;;36.47;22.33;;;4.70;88.60;;;;;;5066525;28;20021;-38
2021/03/08 03:27:04;;;;;;;36.63;23.20;;;4.70;88.60;;;;;;5066531;28;20086;-36
2021/03/08 03:29:34;;;;;;;47.15;27.92;;;4.60;88.50;;;;;;5066789;28;20021;-40
2021/03/08 03:32:01;;;;;;;45.03;27.25;;;4.70;88.70;;;;;;5066646;28;20025;-39
2021/03/08 03:34:27;;;;;;;43.20;26.60;;;4.60;88.70;;;;;;5066384;28;20416;-40
2021/03/08 03:36:54;;;;;;;43.47;25.30;;;4.60;88.60;;;;;;5065841;28;20134;-39
2021/03/08 03:39:20;;;;;;;43.70;26.35;;;4.60;88.60;;;;;;5065984;28;20066;-39
2021/03/08 03:41:46;;;;;;;40.22;24.67;;;4.60;88.80;;;;;;5065760;28;20025;-40
2021/03/08 03:44:12;;;;;;;39.67;25.35;;;4.60;88.80;;;;;;5065753;28;20490;-39
2021/03/08 03:46:43;;;;;;;35.80;23.02;;;4.60;88.80;;;;;;5065052;28;20105;-40
2021/03/08 03:49:11;;;;;;;39.58;24.42;;;4.60;88.70;;;;;;5066356;28;20056;-38
2021/03/08 03:51:37;;;;;;;42.28;25.08;;;4.60;88.70;;;;;;5064796;28;20078;-42
2021/03/08 03:54:04;;;;;;;35.88;22.27;;;4.60;88.60;;;;;;5065442;28;20837;-39
2021/03/08 03:56:31;;;;;;;34.10;21.90;;;4.60;88.60;;;;;;5065710;28;20139;-40
2021/03/08 03:59:36;;;;;;;36.88;22.77;;;4.60;88.60;;;;;;5066519;28;20033;-40
2021/03/08 04:02:07;;;;;;;39.47;23.98;;;4.60;88.80;;;;;;5065369;28;20043;-39
2021/03/08 04:04:37;;;;;;;37.00;23.55;;;4.60;88.80;;;;;;5065998;28;20028;-38
2021/03/08 04:07:05;;;;;;;38.50;23.58;;;4.60;88.80;;;;;;5066054;28;20054;-38
2021/03/08 04:09:31;;;;;;;41.17;25.35;;;4.60;89.00;;;;;;5065316;28;20409;-38
2021/03/08 04:11:59;;;;;;;46.08;27.45;;;4.50;88.80;;;;;;5065721;28;20067;-36
2021/03/08 04:14:27;;;;;;;43.22;26.75;;;4.60;89.20;;;;;;5065859;28;20060;-37
2021/03/08 04:16:56;;;;;;;41.85;25.92;;;4.60;89.10;;;;;;5065009;28;20080;-36
2021/03/08 04:19:26;;;;;;;47.40;29.52;;;4.50;89.10;;;;;;5064779;28;20112;-37
2021/03/08 04:21:58;;;;;;;44.78;26.48;;;4.50;89.50;;;;;;5064929;28;20491;-37
2021/03/08 04:24:23;;;;;;;47.72;26.67;;;4.50;89.30;;;;;;5065510;28;20081;-38
2021/03/08 04:26:50;;;;;;;43.90;25.92;;;4.50;89.30;;;;;;5065264;28;20642;-39
2021/03/08 04:29:18;;;;;;;41.92;24.55;;;4.50;89.30;;;;;;5064963;28;20028;-38
2021/03/08 04:31:46;;;;;;;41.90;24.85;;;4.50;89.30;;;;;;5065163;28;20078;-40
2021/03/08 04:34:14;;;;;;;47.50;27.92;;;4.50;89.30;;;;;;5064815;28;20036;-38
2021/03/08 04:36:44;;;;;;;47.08;28.50;;;4.50;89.60;;;;;;5064888;28;20028;-36
2021/03/08 04:39:11;;;;;;;41.55;25.85;;;4.50;89.70;;;;;;5064915;28;20055;-39
2021/03/08 04:41:36;;;;;;;41.00;25.50;;;4.50;89.70;;;;;;5064958;28;20029;-38
2021/03/08 04:44:03;;;;;;;41.20;25.25;;;4.50;89.70;;;;;;5064463;28;20024;-37
2021/03/08 04:46:30;;;;;;;41.40;26.00;;;4.50;89.70;;;;;;5065357;28;20051;-39
2021/03/08 04:48:57;;;;;;;42.72;26.65;;;4.50;89.70;;;;;;5065303;28;20325;-39
2021/03/08 04:51:24;;;;;;;37.53;24.58;;;4.50;89.60;;;;;;5064882;28;20043;-39
2021/03/08 04:53:53;;;;;;;44.03;24.65;;;4.50;89.60;;;;;;5064787;28;20052;-39
2021/03/08 04:56:19;;;;;;;41.13;24.90;;;4.50;89.50;;;;;;5064652;28;20385;-39
2021/03/08 04:58:45;;;;;;;40.97;24.00;;;4.60;89.50;;;;;;5064088;28;20440;-40
2021/03/08 05:01:12;;;;;;;41.38;24.75;;;4.60;89.50;;;;;;5065226;28;20039;-39
2021/03/08 05:03:38;;;;;;;42.40;25.00;;;4.60;89.60;;;;;;5064695;28;20016;-39
2021/03/08 05:06:06;;;;;;;38.15;24.25;;;4.60;90.00;;;;;;5064272;28;20024;-36
2021/03/08 05:08:34;;;;;;;43.30;25.88;;;4.60;89.70;;;;;;5064957;28;20415;-36
2021/03/08 05:11:01;;;;;;;39.85;25.38;;;4.50;89.60;;;;;;5064790;28;20768;-39
2021/03/08 05:13:31;;;;;;;43.53;26.60;;;4.50;89.70;;;;;;5064938;28;20028;-38
2021/03/08 05:16:00;;;;;;;44.13;26.45;;;4.60;89.80;;;;;;5064735;28;20429;-36
2021/03/08 05:18:27;;;;;;;43.90;27.45;;;4.60;90.00;;;;;;5064302;28;20543;-38
2021/03/08 05:20:54;;;;;;;38.88;24.27;;;4.50;89.80;;;;;;5064155;28;20028;-39
2021/03/08 05:23:19;;;;;;;38.88;25.05;;;4.60;89.80;;;;;;5064962;28;20028;-38
2021/03/08 05:25:48;;;;;;;43.42;24.58;;;4.50;89.90;;;;;;5064028;28;20025;-38
2021/03/08 05:28:15;;;;;;;41.70;27.08;;;4.50;90.00;;;;;;5064708;28;20024;-38
2021/03/08 05:30:40;;;;;;;45.40;28.63;;;4.50;90.00;;;;;;5064797;28;20044;-39
2021/03/08 05:33:24;;;;;;;40.78;26.60;;;4.50;90.20;;;;;;5064003;28;20117;-37
2021/03/08 05:35:55;;;;;;;43.55;26.63;;;4.50;90.10;;;;;;5064332;28;20117;-40
2021/03/08 05:38:23;;;;;;;37.42;24.65;;;4.50;90.10;;;;;;5064686;28;20025;-39
2021/03/08 05:41:16;;;;;;;39.33;24.35;;;4.60;90.10;;;;;;5064140;28;20032;-39
2021/03/08 05:43:46;;;;;;;39.33;25.35;;;4.60;90.10;;;;;;5044709;28;20047;-38
2021/03/08 05:46:19;;;;;;;38.47;24.02;;;4.50;90.10;;;;;;5059064;28;20028;-38
2021/03/08 05:49:25;;;;;;;41.53;25.00;;;4.50;90.00;;;;;;5064936;28;20074;-38
2021/03/08 05:52:11;;;;;;;38.42;23.75;;;4.60;90.10;;;;;;5064591;28;20043;-36
2021/03/08 05:54:54;;;;;;;40.60;24.17;;;4.50;90.00;;;;;;5064073;28;20112;-39
2021/03/08 05:57:26;;;;;;;39.22;24.00;;;4.60;90.10;;;;;;5064176;28;20052;-36
2021/03/08 06:00:09;;;;;;;40.83;25.95;;;4.60;90.10;;;;;;5064836;28;20035;-36
2021/03/08 06:02:34;;;;;;;;;;;4.60;90.00;;;;;;5065027;28;20023;-39
2021/03/08 06:05:39;;;;;;;45.95;27.88;;;4.60;90.10;;;;;;5064593;28;19908;-38
2021/03/08 06:08:39;;;;;;;48.00;28.08;;;4.60;90.10;;;;;;5063472;28;20107;-38
2021/03/08 06:11:11;;;;;;;45.75;28.23;;;4.60;90.10;;;;;;5064056;28;20039;-34
2021/03/08 06:13:57;;;;;;;43.60;26.65;;;4.70;90.20;;;;;;5064749;28;20028;-38
2021/03/08 06:16:36;;;;;;;39.55;25.73;;;4.70;90.10;;;;;;5067272;28;20036;-39
2021/03/08 06:19:04;;;;;;;43.80;27.05;;;4.70;90.10;;;;;;5067993;28;20024;-39
2021/03/08 06:21:34;;;;;;;41.85;24.23;;;4.70;90.10;;;;;;5067376;28;20025;-38
2021/03/08 06:24:01;;;;;;;42.30;25.98;;;4.80;90.10;;;;;;5068322;28;20024;-38
2021/03/08 06:26:28;;;;;;;40.25;24.83;;;4.80;90.10;;;;;;5067845;28;20130;-39
2021/03/08 06:28:55;;;;;;;42.50;26.95;;;4.80;90.10;;;;;;5067293;28;20063;-38
2021/03/08 06:31:21;;;;;;;38.45;24.40;;;4.80;90.10;;;;;;5068009;28;20048;-40
2021/03/08 06:33:49;;;;;;;42.58;27.08;;;4.80;90.10;;;;;;5067962;28;20491;-40
2021/03/08 06:36:17;;;;;;;37.30;25.15;;;4.90;90.00;;;;;;5067141;28;20082;-36
2021/03/08 06:38:43;;;;;;;43.38;26.13;;;4.90;90.10;;;;;;5067925;28;20048;-38
2021/03/08 06:41:09;;;;;;;43.45;26.67;;;4.90;90.10;;;;;;5067441;28;20095;-39
2021/03/08 06:43:36;;;;;;;42.05;27.00;;;4.90;90.10;;;;;;5066860;28;20028;-38
2021/03/08 06:46:03;;;;;;;44.85;27.40;;;4.90;90.10;;;;;;5067668;28;20090;-39
2021/03/08 06:48:29;;;;;;;38.83;25.05;;;5.00;90.10;;;;;;5067565;28;20131;-39
2021/03/08 06:51:15;;;;;;;41.80;26.23;;;5.00;90.00;;;;;;5067048;28;20103;-38
2021/03/08 06:53:42;;;;;;;37.70;24.70;;;5.00;90.00;;;;;;5067232;28;20549;-37
2021/03/08 06:56:15;;;;;;;39.22;24.85;;;5.00;90.00;;;;;;5064507;28;20057;-38
2021/03/08 06:58:42;;;;;;;43.10;27.38;;;5.00;90.00;;;;;;5057536;28;20115;-38
2021/03/08 07:01:32;;;;;;;43.05;26.52;;;5.10;90.00;;;;;;5066294;28;20032;-36
2021/03/08 07:03:59;;;;;;;42.40;26.25;;;5.10;90.00;;;;;;5062748;28;20036;-39
2021/03/08 07:06:25;;;;;;;42.22;26.88;;;5.10;89.90;;;;;;5046133;28;20091;-38
2021/03/08 07:08:51;;;;;;;37.00;23.92;;;5.20;90.00;;;;;;5060758;28;20056;-38
2021/03/08 07:11:22;;;;;;;44.90;26.15;;;5.20;89.80;;;;;;5065920;28;20345;-39
2021/03/08 07:13:48;;;;;;;41.05;26.27;;;5.20;89.80;;;;;;5066028;28;20482;-39
2021/03/08 07:16:14;;;;;;;38.60;24.17;;;5.20;89.80;;;;;;5066344;28;20116;-39
2021/03/08 07:18:40;;;;;;;37.47;23.02;;;5.30;89.80;;;;;;5065272;28;20085;-38
2021/03/08 07:21:12;;;;;;;38.65;23.75;;;5.30;89.70;;;;;;5066724;28;20028;-40
2021/03/08 07:23:39;;;;;;;36.97;23.95;;;5.40;89.60;;;;;;5064756;28;20024;-39
2021/03/08 07:26:06;;;;;;;42.25;25.73;;;5.40;89.50;;;;;;5064432;28;20069;-37
2021/03/08 07:28:32;;;;;;;36.35;23.35;;;5.40;89.50;;;;;;5065285;28;20031;-38
2021/03/08 07:30:57;;;;;;;36.00;23.00;;;5.40;89.40;;;;;;5067925;28;20032;-39
2021/03/08 07:33:23;;;;;;;33.63;21.90;;;5.40;89.40;;;;;;5065606;28;20028;-40
2021/03/08 07:35:53;;;;;;;39.92;23.30;;;5.50;89.40;;;;;;5065989;28;20535;-39
2021/03/08 07:38:31;;;;;;;38.92;25.30;;;5.50;89.40;;;;;;5065955;28;20047;-40
2021/03/08 07:41:14;;;;;;;36.53;23.73;;;5.50;89.40;;;;;;5063214;28;20032;-38
2021/03/08 07:43:41;;;;;;;36.65;22.73;;;5.60;89.30;;;;;;5065536;28;20028;-38
2021/03/08 07:46:26;;;;;;;34.08;22.20;;;5.60;89.30;;;;;;5065463;28;20152;-42
2021/03/08 07:48:54;;;;;;;34.35;21.33;;;5.70;89.20;;;;;;5065988;28;20103;-39
2021/03/08 07:51:19;;;;;;;32.78;21.95;;;5.70;89.10;;;;;;5065728;28;20017;-39
2021/03/08 07:53:45;;;;;;;35.35;21.85;;;5.80;89.10;;;;;;5064858;28;20051;-38
2021/03/08 07:56:10;;;;;;;35.13;23.13;;;5.80;88.90;;;;;;5064123;28;20177;-39
2021/03/08 07:58:38;;;;;;;37.28;23.67;;;5.90;88.90;;;;;;5065651;28;20020;-38
2021/03/08 08:01:08;;;;;;;37.15;24.38;;;5.90;88.90;;;;;;5064596;28;20549;-41
2021/03/08 08:03:36;;;;;;;35.40;23.13;;;5.90;88.70;;;;;;5066050;28;20097;-39
2021/03/08 08:06:06;;;;;;;37.20;23.00;;;6.00;88.70;;;;;;5065797;28;20145;-39
2021/03/08 08:08:34;;;;;;;46.47;28.50;;;6.10;88.70;;;;;;5044847;28;20037;-38
2021/03/08 08:11:02;;;;;;;42.92;26.88;;;6.10;88.40;;;;;;5060220;28;20060;-39
2021/03/08 08:13:32;;;;;;;47.80;27.40;;;6.10;88.30;;;;;;5065040;28;20444;-37
2021/03/08 08:15:58;;;;;;;40.85;27.33;;;6.20;88.80;;;;;;5064553;28;20052;-37
2021/03/08 08:18:26;;;;;;;42.25;26.00;;;6.20;88.20;;;;;;5064875;28;20020;-39
2021/03/08 08:20:55;;;;;;;39.17;25.95;;;6.30;88.20;;;;;;5066122;28;20023;-39
2021/03/08 08:23:26;;;;;;;36.63;25.30;;;6.30;88.00;;;;;;5064598;28;20476;-39
2021/03/08 08:25:52;;;;;;;37.85;24.58;;;6.40;88.00;;;;;;5064614;28;20023;-39
2021/03/08 08:28:19;;;;;;;37.03;25.10;;;6.50;88.00;;;;;;5064313;28;20037;-37
2021/03/08 08:30:55;;;;;;;39.53;27.17;;;6.50;87.90;;;;;;5064460;28;20570;-40
2021/03/08 08:33:28;;;;;;;40.75;25.85;;;6.50;87.50;;;;;;5064827;28;20561;-39
2021/03/08 08:36:16;;;;;;;39.00;25.15;;;6.60;87.70;;;;;;5063670;28;20128;-36
2021/03/08 08:38:52;;;;;;;40.53;26.88;;;6.60;87.40;;;;;;5064751;28;20050;-39
2021/03/08 08:41:22;;;;;;;43.90;28.45;;;6.60;87.40;;;;;;5064219;28;20137;-39
2021/03/08 08:44:08;;;;;;;42.97;26.88;;;6.60;87.30;;;;;;5064364;28;20115;-39
2021/03/08 08:46:39;;;;;;;42.88;26.30;;;6.60;87.30;;;;;;5064219;28;20020;-38
2021/03/08 08:49:06;;;;;;;40.17;25.98;;;6.60;87.30;;;;;;5064014;28;20039;-39
2021/03/08 08:51:51;;;;;;;44.15;27.45;;;6.60;87.30;;;;;;5064136;28;20060;-40
2021/03/08 08:54:50;;;;;;;48.28;30.33;;;6.70;87.40;;;;;;5064877;28;20085;-39
2021/03/08 08:57:15;;;;;;;47.42;28.50;;;6.60;86.60;;;;;;5062983;28;20059;-38
2021/03/08 08:59:48;;;;;;;57.65;33.50;;;6.60;86.80;;;;;;5064497;28;20033;-39
2021/03/08 09:04:43;;;;;;;46.35;29.83;;;6.50;86.80;;;;;;5063667;28;19904;-39
2021/03/08 09:07:23;;;;;;;49.38;30.83;;;6.40;87.00;;;;;;5063767;28;20415;-39
2021/03/08 09:09:54;;;;;;;45.35;29.08;;;6.40;87.20;;;;;;5064240;28;20064;-38
2021/03/08 09:12:34;;;;;;;47.50;29.45;;;6.50;87.30;;;;;;5063862;28;20032;-40
2021/03/08 09:15:09;;;;;;;48.92;32.17;;;6.60;87.10;;;;;;5064635;28;20032;-40
2021/03/08 09:17:47;;;;;;;51.83;31.73;;;6.60;86.40;;;;;;5063444;28;20035;-39
2021/03/08 09:20:12;;;;;;;49.47;30.80;;;6.60;86.50;;;;;;5062410;28;20459;-39
2021/03/08 09:22:44;;;;;;;47.58;31.10;;;6.60;86.70;;;;;;5064329;28;20028;-39
2021/03/08 09:25:10;;;;;;;46.97;30.23;;;6.60;86.60;;;;;;5056473;28;20040;-38
2021/03/08 09:27:47;;;;;;;52.15;31.40;;;6.70;86.70;;;;;;5052720;28;20020;-39
2021/03/08 09:30:20;;;;;;;46.35;29.30;;;6.70;86.20;;;;;;5062027;28;20075;-40
2021/03/08 09:32:47;;;;;;;44.92;28.55;;;6.70;86.40;;;;;;5063727;28;20078;-40
2021/03/08 09:35:13;;;;;;;46.90;29.25;;;6.80;86.30;;;;;;5063217;28;20047;-42
2021/03/08 09:37:43;;;;;;;47.58;30.40;;;6.90;86.00;;;;;;5064013;28;20037;-36
2021/03/08 09:40:09;;;;;;;42.67;27.35;;;7.00;85.90;;;;;;5063589;28;20025;-39
2021/03/08 09:42:39;;;;;;;39.03;26.05;;;7.00;86.00;;;;;;5064912;28;20750;-38
2021/03/08 09:45:22;;;;;;;43.40;27.13;;;7.20;86.00;;;;;;5059208;28;20101;-38
2021/03/08 09:47:49;;;;;;;;;;;7.30;85.80;;;;;;5063250;28;20106;-38
2021/03/08 09:50:18;;;;;;;47.97;29.92;;;7.40;85.00;;;;;;5065923;28;19908;-36
2021/03/08 09:52:46;;;;;;;51.13;31.15;;;7.40;84.60;;;;;;5062457;28;20036;-40
2021/03/08 09:55:21;;;;;;;45.47;29.35;;;7.40;84.40;;;;;;5065795;28;20167;-36
2021/03/08 09:57:46;;;;;;;42.72;28.25;;;7.40;84.70;;;;;;5069063;28;20048;-39
2021/03/08 10:00:17;;;;;;;39.67;25.83;;;7.40;85.10;;;;;;5067240;28;20025;-40
2021/03/08 10:02:43;;;;;;;47.75;29.33;;;7.50;85.10;;;;;;5065147;28;20075;-39
2021/03/08 10:05:11;;;;;;;43.72;29.15;;;7.70;84.80;;;;;;5067047;28;20024;-39
2021/03/08 10:07:56;;;;;;;44.88;28.50;;;7.70;84.30;;;;;;5067204;28;20446;-40
2021/03/08 10:10:24;;;;;;;46.53;29.83;;;7.80;84.30;;;;;;5068063;28;20043;-41
2021/03/08 10:12:58;;;;;;;46.97;30.70;;;7.90;83.40;;;;;;5067792;28;20269;-40
2021/03/08 10:15:23;;;;;;;47.95;31.20;;;7.90;83.30;;;;;;5066435;28;20028;-42
2021/03/08 10:17:56;;;;;;;45.00;28.85;;;7.80;83.30;;;;;;5068353;28;20815;-38
2021/03/08 10:20:21;;;;;;;52.95;32.45;;;7.80;83.70;;;;;;5067846;28;20012;-39
2021/03/08 10:22:47;;;;;;;47.40;30.05;;;7.80;83.40;;;;;;5066170;28;20028;-40
2021/03/08 10:25:21;;;;;;;44.45;29.88;;;7.80;83.50;;;;;;5067821;28;20441;-40
2021/03/08 10:27:55;;;;;;;43.03;27.98;;;7.90;83.80;;;;;;5066676;28;20017;-40
2021/03/08 10:30:21;;;;;;;43.55;26.40;;;7.90;83.80;;;;;;5066892;28;20032;-41
2021/03/08 10:32:48;;;;;;;47.15;30.88;;;8.00;83.90;;;;;;5067157;28;20020;-38
2021/03/08 10:35:14;;;;;;;41.80;29.23;;;8.10;83.20;;;;;;5067152;28;20035;-37
2021/03/08 10:37:41;;;;;;;39.83;26.35;;;8.20;83.10;;;;;;5067723;28;20669;-41
2021/03/08 10:40:08;;;;;;;40.78;26.67;;;8.20;83.20;;;;;;5067225;28;20031;-37
2021/03/08 10:42:36;;;;;;;47.63;28.90;;;8.30;83.30;;;;;;5067116;28;20576;-39
2021/03/08 10:45:08;;;;;;;42.65;29.13;;;8.40;82.80;;;;;;5066991;28;20020;-38
2021/03/08 10:47:34;;;;;;;39.45;26.50;;;8.50;82.70;;;;;;5067442;28;20067;-39
2021/03/08 10:50:00;;;;;;;37.83;24.67;;;8.60;82.80;;;;;;5066397;28;20056;-40
2021/03/08 10:52:25;;;;;;;39.33;25.42;;;8.70;82.90;;;;;;5066652;28;20026;-38
2021/03/08 10:54:51;;;;;;;42.35;27.15;;;8.80;82.40;;;;;;5066000;28;20407;-40
2021/03/08 10:57:20;;;;;;;34.53;24.15;;;8.90;82.30;;;;;;5065530;28;20127;-40
2021/03/08 10:59:50;;;;;;;41.45;26.60;;;9.00;82.40;;;;;;5065028;28;20029;-43
2021/03/08 11:02:17;;;;;;;36.70;25.17;;;9.00;82.00;;;;;;5064378;28;20480;-39
2021/03/08 11:04:44;;;;;;;47.13;30.20;;;9.10;82.10;;;;;;5065613;28;20025;-38
2021/03/08 11:07:11;;;;;;;43.67;27.77;;;9.00;80.90;;;;;;5066764;28;20024;-40
2021/03/08 11:09:39;;;;;;;44.85;29.58;;;9.00;81.00;;;;;;5067618;28;20032;-38
2021/03/08 11:12:19;;;;;;;45.42;28.60;;;9.00;80.20;;;;;;5066921;28;20497;-37
2021/03/08 11:14:56;;;;;;;38.65;25.70;;;8.90;80.40;;;;;;5047439;28;20033;-41
2021/03/08 11:17:33;;;;;;;37.45;25.65;;;8.90;81.80;;;;;;5065374;28;20039;-41
2021/03/08 11:20:05;;;;;;;41.17;27.40;;;9.00;81.20;;;;;;5048038;28;20059;-40
2021/03/08 11:22:30;;;;;;;36.63;24.65;;;9.10;80.70;;;;;;5062201;28;20025;-39
2021/03/08 11:24:56;;;;;;;42.28;27.17;;;9.10;80.80;;;;;;5065061;28;20028;-38
2021/03/08 11:27:24;;;;;;;38.58;25.08;;;9.20;80.40;;;;;;5066210;28;20452;-37
2021/03/08 11:30:09;;;;;;;36.15;23.55;;;9.30;80.60;;;;;;5066876;28;20318;-40
2021/03/08 11:32:38;;;;;;;35.65;23.77;;;9.40;80.80;;;;;;5066735;28;20108;-36
2021/03/08 11:35:05;;;;;;;36.67;23.67;;;9.50;80.70;;;;;;5067677;28;20028;-39
2021/03/08 11:37:34;;;;;;;37.17;25.10;;;9.50;80.50;;;;;;5066331;28;20043;-41
2021/03/08 11:40:09;;;;;;;35.53;23.98;;;9.60;79.90;;;;;;5070212;28;20059;-39
2021/03/08 11:42:34;;;;;;;37.55;25.77;;;9.60;80.10;;;;;;5066146;28;20482;-39
2021/03/08 11:45:00;;;;;;;35.17;23.77;;;9.60;79.10;;;;;;5066619;28;20020;-40
2021/03/08 11:47:25;;;;;;;36.90;25.45;;;9.50;79.50;;;;;;5066778;28;20464;-37
2021/03/08 11:50:03;;;;;;;33.58;23.42;;;9.50;79.80;;;;;;5066948;28;20107;-39
2021/03/08 11:52:29;;;;;;;33.33;22.90;;;9.50;80.10;;;;;;5066486;28;20487;-39
2021/03/08 11:54:54;;;;;;;33.08;22.42;;;9.40;80.30;;;;;;5066842;28;20498;-38
2021/03/08 11:57:20;;;;;;;32.83;21.92;;;9.40;80.10;;;;;;5065522;28;20075;-38
2021/03/08 11:59:46;;;;;;;34.72;23.20;;;9.30;80.30;;;;;;5065304;28;20095;-40
2021/03/08 12:02:11;;;;;;;45.75;29.58;;;9.40;80.50;;;;;;5064813;28;20067;-39
2021/03/08 12:04:37;;;;;;;43.95;29.55;;;9.30;80.00;;;;;;5065044;28;20078;-39
2021/03/08 12:07:02;;;;;;;49.97;32.47;;;9.30;80.00;;;;;;5065388;28;20543;-41
2021/03/08 12:09:28;;;;;;;49.25;32.33;;;9.20;80.10;;;;;;5065395;28;20021;-37
2021/03/08 12:11:53;;;;;;;44.03;30.17;;;9.20;80.40;;;;;;5065445;28;20033;-40
2021/03/08 12:14:19;;;;;;;45.47;29.33;;;9.10;80.70;;;;;;5063963;28;20676;-39
2021/03/08 12:16:44;;;;;;;52.22;30.80;;;9.10;81.00;;;;;;5064594;28;20174;-40
2021/03/08 12:19:10;;;;;;;48.15;30.02;;;9.10;81.00;;;;;;5064675;28;20490;-39
2021/03/08 12:21:35;;;;;;;43.53;27.88;;;9.10;81.00;;;;;;5064453;28;20112;-39
2021/03/08 12:24:01;;;;;;;44.08;28.27;;;9.10;81.10;;;;;;5064386;28;20072;-37
2021/03/08 12:26:27;;;;;;;43.78;28.15;;;9.10;81.30;;;;;;5064626;28;20035;-40
2021/03/08 12:28:53;;;;;;;48.20;30.25;;;9.20;81.20;;;;;;5063815;28;20050;-42
2021/03/08 12:31:19;;;;;;;52.00;31.33;;;9.20;81.20;;;;;;5064960;28;20033;-38
2021/03/08 12:33:48;;;;;;;46.47;30.90;;;9.20;81.00;;;;;;5064928;28;20039;-41
2021/03/08 12:36:14;;;;;;;51.85;32.42;;;9.30;81.10;;;;;;5064081;28;20040;-37
2021/03/08 12:38:40;;;;;;;48.42;30.52;;;9.30;81.10;;;;;;5064880;28;20034;-39
2021/03/08 12:41:05;;;;;;;48.60;30.27;;;9.30;80.80;;;;;;5064574;28;20387;-39
2021/03/08 12:43:32;;;;;;;49.10;30.88;;;9.40;80.70;;;;;;5063824;28;20527;-34
2021/03/08 12:46:00;;;;;;;45.35;27.35;;;9.40;80.70;;;;;;5064999;28;20388;-39
2021/03/08 12:48:26;;;;;;;46.05;28.02;;;9.50;80.80;;;;;;5064140;28;20451;-38
2021/03/08 12:50:51;;;;;;;42.53;26.50;;;9.60;80.60;;;;;;5064327;28;20032;-38
2021/03/08 12:53:17;;;;;;;44.38;27.50;;;9.70;80.50;;;;;;5064315;28;20098;-39